Etusivu
METAR-TAF:

METAR-TAF

Lentoasemat :

Greenville, Alabama, Yhdysvallat

Leveyspiiri: 31-50-44N, Pituuspiiri: 086-36-38W, korkeus merenpinnasta: 138 m

Tämänhetkinen sää

Tämä raportti tehtiin 34 minuuttia sitten, kello 01.56 UTC
Tuuli 9 kn pohjoisesta/koillisesta
Lämpötila 25°C
Kosteus 69%
Ilmanpaine 1016 hPa
Näkyvyys: 16.1 km
Pilvistä 3300 ft:n korkeudessa

METAR: KPRN 060156Z AUTO 03009KT 10SM OVC033 25/19 A3000 RMK AO2 WSHFT 0127 SLP152 T02500189

Aika: 21:30 (02:30 UTC)


TAF: puuttuu

Säähavainnot ja -ennusteet yli 4000 lentoasemalta (METAR- ja TAF-raportit).

Käytössä olevat sääasemat on merkitty karttaan keltaisilla ja punaisilla pisteillä.

Aseta hiiri pisteen päälle nähdäksesi sääaseman nimen.

Klikkaa sitten nähdäksesi säähavainnot ja -ennusteet.

Kartan vaihtaminen: klikkaa mustalla rastilla varustettuja vihreitä pisteitä, niin voit zoomata sisään; viivalla varustettua vihreää pistettä, niin voit zoomata ulos tai vihreitä nuolia, niin pääset viereisille kartoille.


METAR-TAF: